Time;durP1;ratioP1;P1;durP2;ratioP2;P2;SDS_P1;SDS_P2;PMS_P1;PMS_P2;Temp;Humidity;BMP_temperature;BMP_pressure;BME280_temperature;BME280_humidity;BME280_pressure;Samples;Min_cycle;Max_cycle;Signal;HPM_P1;HPM_P2
2022/05/09 00:00:19;;;;;;;12.98;9.02;;;9.70;95.80;;;;;;5031845;28;20041;-69
2022/05/09 00:02:45;;;;;;;12.25;9.27;;;9.70;95.50;;;;;;5034046;28;20029;-69
2022/05/09 00:05:16;;;;;;;11.40;9.07;;;9.60;95.30;;;;;;5032953;28;20071;-68
2022/05/09 00:07:42;;;;;;;12.90;9.48;;;9.60;95.10;;;;;;5034958;28;20070;-69
2022/05/09 00:10:13;;;;;;;11.93;8.55;;;9.60;95.30;;;;;;5032182;28;20032;-67
2022/05/09 00:12:39;;;;;;;10.85;8.48;;;9.50;95.00;;;;;;5032555;28;20041;-68
2022/05/09 00:15:05;;;;;;;11.32;8.82;;;9.50;94.80;;;;;;5032040;28;20134;-68
2022/05/09 00:17:31;;;;;;;13.18;9.68;;;9.40;94.30;;;;;;5031003;28;20876;-69
2022/05/09 00:19:57;;;;;;;12.05;10.43;;;9.50;94.20;;;;;;5031515;28;20036;-69
2022/05/09 00:22:23;;;;;;;11.85;9.00;;;9.50;94.10;;;;;;5035555;28;20021;-68
2022/05/09 00:24:48;;;;;;;11.38;8.95;;;9.50;94.10;;;;;;5044343;28;20032;-69
2022/05/09 00:27:14;;;;;;;14.95;10.00;;;9.50;94.10;;;;;;5030245;28;20045;-69
2022/05/09 00:29:40;;;;;;;13.40;9.75;;;9.40;94.00;;;;;;5030779;28;20147;-69
2022/05/09 00:32:06;;;;;;;12.30;9.55;;;9.40;94.00;;;;;;5034336;28;20078;-69
2022/05/09 00:34:32;;;;;;;12.48;9.50;;;9.40;93.70;;;;;;5031511;28;20151;-69
2022/05/09 00:36:59;;;;;;;13.20;9.85;;;9.40;93.70;;;;;;5030319;28;20366;-69
2022/05/09 00:39:25;;;;;;;13.10;10.45;;;9.40;93.60;;;;;;5031078;28;20029;-69
2022/05/09 00:41:51;;;;;;;16.45;10.82;;;9.50;93.60;;;;;;5018505;28;20086;-69
2022/05/09 00:44:20;;;;;;;14.65;10.52;;;9.40;93.90;;;;;;5033915;28;20040;-69
2022/05/09 00:46:49;;;;;;;15.30;11.27;;;9.50;93.60;;;;;;5031474;28;20086;-69
2022/05/09 00:49:20;;;;;;;14.00;10.30;;;9.50;94.10;;;;;;5030828;28;20699;-69
2022/05/09 00:52:03;;;;;;;13.27;10.55;;;9.40;94.20;;;;;;5027276;28;20337;-69
2022/05/09 00:54:39;;;;;;;17.27;10.95;;;9.30;94.00;;;;;;5035148;28;20021;-69
2022/05/09 00:57:14;;;;;;;13.57;10.98;;;9.30;93.60;;;;;;5031419;28;20029;-69
2022/05/09 00:59:41;;;;;;;16.25;12.25;;;9.20;93.50;;;;;;5032562;28;20073;-69
2022/05/09 01:02:07;;;;;;;15.60;11.48;;;9.30;93.10;;;;;;5029095;28;20048;-69
2022/05/09 01:04:54;;;;;;;16.30;11.18;;;9.40;92.70;;;;;;5030376;28;20036;-68
2022/05/09 01:07:22;;;;;;;13.77;10.70;;;9.50;93.30;;;;;;5018405;28;20090;-69
2022/05/09 01:09:47;;;;;;;14.00;11.00;;;9.50;93.60;;;;;;5034668;28;20029;-69
2022/05/09 01:12:20;;;;;;;14.18;11.25;;;9.60;93.70;;;;;;5033273;28;20426;-69
2022/05/09 01:14:47;;;;;;;14.93;11.68;;;9.60;94.10;;;;;;5030144;28;20040;-69
2022/05/09 01:17:13;;;;;;;16.15;11.15;;;9.60;93.70;;;;;;5027639;28;20140;-69
2022/05/09 01:19:42;;;;;;;14.57;10.25;;;9.70;93.60;;;;;;5030057;28;20061;-69
2022/05/09 01:22:19;;;;;;;13.48;11.00;;;9.90;94.70;;;;;;5037240;28;20040;-68
2022/05/09 01:24:45;;;;;;;11.82;9.70;;;9.90;95.00;;;;;;5037566;28;20032;-69
2022/05/09 01:27:11;;;;;;;13.68;10.93;;;9.80;95.40;;;;;;5014642;28;20030;-68
2022/05/09 01:29:59;;;;;;;14.05;10.35;;;9.70;95.60;;;;;;5029517;28;20497;-69
2022/05/09 01:32:45;;;;;;;12.75;10.45;;;9.50;95.60;;;;;;5028644;28;20143;-69
2022/05/09 01:35:15;;;;;;;15.13;11.93;;;9.20;94.90;;;;;;5024846;28;20056;-68
2022/05/09 01:37:43;;;;;;;13.98;11.23;;;9.10;94.40;;;;;;5028867;28;20582;-69
2022/05/09 01:40:10;;;;;;;15.55;12.32;;;9.00;94.10;;;;;;5014298;28;20302;-69
2022/05/09 01:42:41;;;;;;;12.98;10.77;;;8.90;93.60;;;;;;5035880;28;20035;-69
2022/05/09 01:45:11;;;;;;;14.40;10.23;;;8.80;92.90;;;;;;5029754;28;20025;-68
2022/05/09 01:50:23;;;;;;;;;;;8.60;92.30;;;;;;5030941;28;20386;-68
2022/05/09 01:52:49;;;;;;;15.07;12.07;;;8.60;92.50;;;;;;5048930;28;20255;-69
2022/05/09 01:55:15;;;;;;;14.88;11.65;;;8.50;92.00;;;;;;5036950;28;20437;-69
2022/05/09 01:57:43;;;;;;;14.93;11.32;;;8.50;91.50;;;;;;5029815;28;20033;-68
2022/05/09 02:00:09;;;;;;;16.55;11.82;;;8.40;91.30;;;;;;5028494;28;20052;-69
2022/05/09 02:02:39;;;;;;;16.70;12.13;;;8.30;90.80;;;;;;5030165;28;20029;-69
2022/05/09 02:05:05;;;;;;;14.70;11.38;;;8.30;90.40;;;;;;5030193;28;20033;-68
2022/05/09 02:07:34;;;;;;;15.60;12.05;;;8.30;90.00;;;;;;5030206;28;20035;-69
2022/05/09 02:09:59;;;;;;;15.77;11.88;;;8.30;90.30;;;;;;5042178;28;20032;-69
2022/05/09 02:12:26;;;;;;;15.45;13.38;;;8.20;90.30;;;;;;5030575;28;20033;-68
2022/05/09 02:14:52;;;;;;;14.50;11.05;;;8.20;89.80;;;;;;5029624;28;20143;-68
2022/05/09 02:17:18;;;;;;;14.43;11.73;;;8.20;89.40;;;;;;5026962;28;20036;-68
2022/05/09 02:19:43;;;;;;;15.50;12.52;;;8.20;89.80;;;;;;5029036;28;20028;-68
2022/05/09 02:22:12;;;;;;;17.83;12.75;;;8.10;89.70;;;;;;5031567;28;20040;-69
2022/05/09 02:24:39;;;;;;;16.65;13.77;;;8.10;89.20;;;;;;5037683;28;21592;-69
2022/05/09 02:27:07;;;;;;;18.42;13.05;;;8.20;88.50;;;;;;5034373;28;20025;-68
2022/05/09 02:29:33;;;;;;;14.40;12.13;;;8.20;88.50;;;;;;5031614;28;20040;-68
2022/05/09 02:31:59;;;;;;;15.05;12.93;;;8.20;88.50;;;;;;5031640;28;20037;-68
2022/05/09 02:34:27;;;;;;;18.40;14.43;;;8.20;88.50;;;;;;5033792;28;20036;-68
2022/05/09 02:36:56;;;;;;;17.88;13.57;;;8.10;88.80;;;;;;5034509;28;20593;-68
2022/05/09 02:39:21;;;;;;;17.20;13.68;;;8.10;88.40;;;;;;5016064;28;20856;-68
2022/05/09 02:41:48;;;;;;;19.77;15.00;;;8.00;88.10;;;;;;5036172;28;20036;-68
2022/05/09 02:44:16;;;;;;;17.67;13.38;;;8.00;87.60;;;;;;5033149;28;20029;-68
2022/05/09 02:46:42;;;;;;;16.23;12.55;;;8.00;87.70;;;;;;5033255;28;20047;-69
2022/05/09 02:49:09;;;;;;;14.90;12.30;;;8.00;86.30;;;;;;5031400;28;20041;-70
2022/05/09 02:51:34;;;;;;;17.02;14.20;;;8.10;86.70;;;;;;5041703;28;20033;-70
2022/05/09 02:54:00;;;;;;;20.75;16.08;;;8.20;86.10;;;;;;5025686;28;20024;-68
2022/05/09 02:56:26;;;;;;;18.17;14.43;;;8.20;85.90;;;;;;5032622;28;20029;-68
2022/05/09 02:58:55;;;;;;;23.77;16.33;;;8.30;85.80;;;;;;5033361;28;20418;-68
2022/05/09 03:01:21;;;;;;;20.65;15.75;;;8.30;86.00;;;;;;5013897;28;20421;-69
2022/05/09 03:06:31;;;;;;;21.02;14.80;;;8.30;85.70;;;;;;5033425;28;20064;-68
2022/05/09 03:08:57;;;;;;;16.58;13.93;;;8.20;85.70;;;;;;5034559;28;20116;-69
2022/05/09 03:11:24;;;;;;;20.15;14.73;;;8.20;86.20;;;;;;5032024;28;20040;-70
2022/05/09 03:13:49;;;;;;;18.08;14.48;;;8.10;86.40;;;;;;5033605;28;20029;-68
2022/05/09 03:16:15;;;;;;;16.92;13.75;;;8.10;84.70;;;;;;5032148;28;20112;-68
2022/05/09 03:18:41;;;;;;;18.30;14.68;;;8.20;85.50;;;;;;5027940;28;21415;-68
2022/05/09 03:21:07;;;;;;;21.00;15.20;;;8.10;85.60;;;;;;5033431;28;20048;-68
2022/05/09 03:23:33;;;;;;;20.75;15.55;;;8.00;85.80;;;;;;5049490;28;20075;-68
2022/05/09 03:25:59;;;;;;;16.45;12.38;;;8.00;85.80;;;;;;5032875;28;20060;-68
2022/05/09 03:28:25;;;;;;;22.00;15.20;;;7.90;86.20;;;;;;5033024;28;20037;-69
2022/05/09 03:30:53;;;;;;;17.73;13.45;;;7.80;85.70;;;;;;5032005;28;20028;-68
2022/05/09 03:33:24;;;;;;;19.73;15.32;;;7.80;85.80;;;;;;5030356;28;20121;-68
2022/05/09 03:35:50;;;;;;;16.73;12.23;;;7.70;86.10;;;;;;5030213;28;20037;-69
2022/05/09 03:38:16;;;;;;;18.92;14.70;;;7.60;85.50;;;;;;5032253;28;20048;-67
2022/05/09 03:40:41;;;;;;;18.23;14.57;;;7.50;86.00;;;;;;5027816;28;20024;-68
2022/05/09 03:43:07;;;;;;;22.50;17.50;;;7.50;85.40;;;;;;5037153;28;20078;-68
2022/05/09 03:45:36;;;;;;;22.27;17.55;;;7.50;85.20;;;;;;5046997;28;20120;-68
2022/05/09 03:48:03;;;;;;;26.75;19.67;;;7.60;84.90;;;;;;5035330;28;20112;-68
2022/05/09 03:50:29;;;;;;;22.15;16.83;;;7.60;84.90;;;;;;5060268;28;20028;-68
2022/05/09 03:52:55;;;;;;;18.90;15.88;;;7.60;85.00;;;;;;5038975;28;20029;-68
2022/05/09 03:55:21;;;;;;;19.73;15.65;;;7.50;85.00;;;;;;5048074;28;20033;-68
2022/05/09 03:57:52;;;;;;;26.77;20.08;;;7.60;84.30;;;;;;5031077;28;20040;-69
2022/05/09 04:00:21;;;;;;;27.70;19.77;;;7.70;84.00;;;;;;5033261;28;20037;-69
2022/05/09 04:02:48;;;;;;;23.10;16.88;;;7.70;84.60;;;;;;5028944;28;20033;-68
2022/05/09 04:05:17;;;;;;;23.38;18.30;;;7.60;84.20;;;;;;5031348;28;20035;-69
2022/05/09 04:07:53;;;;;;;27.85;20.88;;;7.80;83.70;;;;;;5049310;28;20033;-69
2022/05/09 04:10:25;;;;;;;22.17;17.90;;;7.80;84.00;;;;;;5049789;28;20021;-69
2022/05/09 04:12:56;;;;;;;22.98;18.48;;;7.80;83.30;;;;;;5039054;28;20701;-69
2022/05/09 04:18:06;;;;;;;22.48;18.83;;;8.00;83.20;;;;;;5052289;28;20044;-70
2022/05/09 04:20:37;;;;;;;25.80;19.88;;;8.10;84.20;;;;;;5051568;28;21505;-69
2022/05/09 04:23:06;;;;;;;28.70;22.08;;;8.20;83.10;;;;;;5040814;28;20095;-68
2022/05/09 04:25:32;;;;;;;24.50;19.33;;;8.50;82.40;;;;;;5031768;28;20025;-68
2022/05/09 04:28:06;;;;;;;27.27;19.48;;;8.50;84.30;;;;;;5030311;28;21733;-68
2022/05/09 04:30:35;;;;;;;23.45;19.90;;;8.50;84.60;;;;;;5032395;28;20727;-69
2022/05/09 04:33:05;;;;;;;21.80;17.35;;;8.50;84.70;;;;;;5043318;28;20072;-70
2022/05/09 04:35:32;;;;;;;23.20;18.10;;;8.60;84.60;;;;;;5060309;28;20058;-69
2022/05/09 04:37:59;;;;;;;19.63;16.38;;;8.60;84.80;;;;;;5041306;28;20029;-69
2022/05/09 04:40:30;;;;;;;20.05;15.30;;;8.70;84.60;;;;;;5030033;28;20040;-68
2022/05/09 04:42:58;;;;;;;24.67;19.10;;;8.80;85.40;;;;;;5035757;28;20024;-69
2022/05/09 04:45:25;;;;;;;23.23;17.98;;;8.90;86.40;;;;;;5031050;28;20036;-68
2022/05/09 04:47:51;;;;;;;23.02;17.27;;;8.90;86.90;;;;;;5029130;28;20504;-69
2022/05/09 04:50:20;;;;;;;25.15;19.30;;;8.90;88.10;;;;;;5030243;28;20438;-69
2022/05/09 04:52:46;;;;;;;23.55;18.02;;;8.80;88.50;;;;;;5050680;28;20102;-69
2022/05/09 04:55:13;;;;;;;19.25;16.45;;;8.70;88.70;;;;;;5035415;28;20029;-69
2022/05/09 04:57:39;;;;;;;19.65;14.75;;;8.70;88.40;;;;;;5025534;28;20040;-69
2022/05/09 05:00:09;;;;;;;21.48;17.83;;;8.70;88.20;;;;;;5032707;28;20049;-68
2022/05/09 05:02:36;;;;;;;18.13;15.15;;;8.80;88.10;;;;;;5030713;28;20025;-68
2022/05/09 05:05:03;;;;;;;19.83;15.60;;;8.90;87.70;;;;;;5031137;28;20056;-69
2022/05/09 05:07:28;;;;;;;19.42;14.93;;;9.00;88.00;;;;;;5030572;28;20028;-69
2022/05/09 05:09:54;;;;;;;18.92;16.75;;;9.10;88.30;;;;;;5027035;28;20033;-69
2022/05/09 05:12:19;;;;;;;19.48;15.73;;;9.20;88.60;;;;;;5031972;28;20411;-69
2022/05/09 05:14:48;;;;;;;22.15;17.85;;;9.20;89.10;;;;;;5027831;28;20588;-68
2022/05/09 05:17:14;;;;;;;19.83;16.65;;;9.30;89.20;;;;;;5028027;28;20025;-69
2022/05/09 05:19:44;;;;;;;19.92;15.52;;;9.30;88.90;;;;;;5030217;28;20059;-68
2022/05/09 05:22:15;;;;;;;18.42;15.30;;;9.40;89.00;;;;;;5036224;28;20019;-69
2022/05/09 05:24:43;;;;;;;18.35;15.52;;;9.50;89.00;;;;;;5057682;28;20578;-69
2022/05/09 05:27:10;;;;;;;21.85;17.30;;;9.60;89.10;;;;;;5055887;28;20021;-69
2022/05/09 05:29:36;;;;;;;17.90;15.02;;;9.70;89.40;;;;;;5057006;28;20024;-68
2022/05/09 05:32:24;;;;;;;19.45;15.95;;;9.80;89.30;;;;;;5053364;28;20025;-68
2022/05/09 05:34:53;;;;;;;18.13;14.70;;;10.00;89.80;;;;;;5051004;28;20703;-68
2022/05/09 05:37:20;;;;;;;20.60;15.80;;;10.10;90.50;;;;;;5054241;28;20025;-68
2022/05/09 05:39:50;;;;;;;17.38;14.32;;;10.30;91.40;;;;;;5052382;28;20495;-68
2022/05/09 05:42:19;;;;;;;20.90;15.32;;;10.40;91.30;;;;;;5036903;28;20056;-70
2022/05/09 05:44:48;;;;;;;17.38;13.32;;;10.60;92.00;;;;;;5037751;28;20039;-69
2022/05/09 05:47:16;;;;;;;15.25;12.40;;;10.70;92.30;;;;;;5049440;28;20422;-69
2022/05/09 05:49:42;;;;;;;13.80;11.93;;;10.90;93.70;;;;;;5053151;28;20036;-70
2022/05/09 05:52:11;;;;;;;15.48;12.05;;;11.10;95.60;;;;;;5053228;28;20070;-69
2022/05/09 05:54:40;;;;;;;16.95;12.93;;;11.30;96.20;;;;;;5054501;28;20025;-69
2022/05/09 05:57:14;;;;;;;16.52;13.10;;;11.40;96.80;;;;;;5053460;28;20029;-69
2022/05/09 05:59:40;;;;;;;15.80;12.98;;;11.50;97.50;;;;;;5049785;28;20044;-69
2022/05/09 06:02:06;;;;;;;16.58;14.02;;;11.60;97.50;;;;;;5052045;28;20024;-69
2022/05/09 06:04:31;;;;;;;17.15;13.00;;;11.80;98.00;;;;;;5054098;28;20021;-69
2022/05/09 06:06:57;;;;;;;19.48;12.80;;;11.90;98.00;;;;;;5036496;28;20052;-68
2022/05/09 06:09:23;;;;;;;15.52;13.02;;;12.00;98.00;;;;;;5053268;28;20099;-68
2022/05/09 06:11:48;;;;;;;13.82;12.00;;;12.10;98.00;;;;;;5053264;28;20033;-69
2022/05/09 06:14:14;;;;;;;18.10;13.77;;;12.20;98.00;;;;;;5053821;28;20390;-68
2022/05/09 06:16:40;;;;;;;14.77;12.20;;;12.30;98.00;;;;;;5036573;28;20067;-68
2022/05/09 06:19:08;;;;;;;15.95;12.82;;;12.40;98.00;;;;;;5051310;28;20029;-68
2022/05/09 06:21:37;;;;;;;16.45;12.45;;;12.60;98.00;;;;;;5052784;28;20029;-68
2022/05/09 06:24:04;;;;;;;18.88;12.93;;;12.80;98.00;;;;;;5053906;28;20056;-69
2022/05/09 06:26:30;;;;;;;17.58;12.55;;;13.00;98.00;;;;;;5053386;28;20108;-69
2022/05/09 06:28:56;;;;;;;15.20;11.90;;;13.10;98.00;;;;;;5053026;28;20025;-69
2022/05/09 06:31:22;;;;;;;16.40;12.50;;;13.20;98.00;;;;;;5052541;28;20108;-70
2022/05/09 06:33:48;;;;;;;14.88;10.63;;;13.20;98.00;;;;;;5052208;28;20032;-69
2022/05/09 06:36:13;;;;;;;13.00;10.35;;;13.30;98.00;;;;;;5052506;28;20441;-69
2022/05/09 06:38:39;;;;;;;11.88;8.75;;;13.30;98.00;;;;;;5053635;28;20096;-69
2022/05/09 06:41:10;;;;;;;13.52;9.38;;;13.40;98.00;;;;;;5052912;28;20425;-69
2022/05/09 06:43:36;;;;;;;11.35;8.40;;;13.40;98.00;;;;;;5053952;28;20025;-68
2022/05/09 06:46:02;;;;;;;13.18;9.63;;;13.40;98.00;;;;;;5050168;28;20104;-69
2022/05/09 06:48:28;;;;;;;13.23;10.02;;;13.50;98.00;;;;;;5052405;28;20140;-69
2022/05/09 06:50:54;;;;;;;13.20;10.18;;;13.50;97.80;;;;;;5051429;28;20025;-70
2022/05/09 06:53:20;;;;;;;14.45;10.88;;;13.50;97.80;;;;;;5053223;28;20028;-70
2022/05/09 06:55:48;;;;;;;13.57;10.45;;;13.70;97.90;;;;;;5053620;28;20123;-69
2022/05/09 06:58:21;;;;;;;12.13;10.20;;;13.70;97.40;;;;;;5053685;28;20029;-69
2022/05/09 07:00:50;;;;;;;13.00;9.57;;;13.80;97.50;;;;;;5039713;28;20377;-69
2022/05/09 07:03:16;;;;;;;12.85;9.90;;;13.80;97.50;;;;;;5034909;28;20484;-70
2022/05/09 07:05:44;;;;;;;13.65;10.65;;;13.80;97.60;;;;;;5055088;28;20029;-69
2022/05/09 07:08:09;;;;;;;14.20;11.07;;;13.90;97.40;;;;;;5053502;28;20031;-69
2022/05/09 07:10:36;;;;;;;12.90;10.60;;;13.90;97.60;;;;;;5034892;28;20108;-69
2022/05/09 07:13:04;;;;;;;13.63;10.77;;;14.00;97.40;;;;;;5043571;28;20021;-70
2022/05/09 07:15:31;;;;;;;14.07;10.25;;;14.10;97.40;;;;;;5038481;28;20041;-69
2022/05/09 07:17:58;;;;;;;12.13;10.48;;;14.30;97.30;;;;;;5056593;28;20029;-70
2022/05/09 07:20:30;;;;;;;12.60;10.65;;;14.50;97.10;;;;;;5058033;28;20075;-70
2022/05/09 07:23:01;;;;;;;13.43;10.40;;;14.70;97.20;;;;;;5032776;28;20021;-69
2022/05/09 07:25:27;;;;;;;12.23;10.20;;;14.70;96.50;;;;;;5055632;28;20114;-69
2022/05/09 07:27:53;;;;;;;12.27;10.10;;;14.70;96.60;;;;;;5057184;28;20097;-69
2022/05/09 07:30:21;;;;;;;11.95;9.73;;;14.90;96.50;;;;;;5058354;28;20032;-69
2022/05/09 07:32:47;;;;;;;12.57;9.25;;;15.20;96.40;;;;;;5055898;28;20067;-69
2022/05/09 07:35:15;;;;;;;12.75;9.68;;;15.50;95.60;;;;;;5057178;28;20021;-70
2022/05/09 07:37:41;;;;;;;11.77;8.95;;;16.20;94.50;;;;;;5058104;28;20415;-69
2022/05/09 07:40:11;;;;;;;12.18;8.07;;;17.20;91.50;;;;;;5056623;28;20025;-70
2022/05/09 07:42:37;;;;;;;10.68;8.40;;;18.30;88.60;;;;;;5057814;28;20454;-70
2022/05/09 07:45:04;;;;;;;14.65;8.25;;;19.00;85.70;;;;;;5057782;28;20322;-69
2022/05/09 07:47:30;;;;;;;12.07;7.88;;;19.00;85.30;;;;;;5036637;28;20470;-70
2022/05/09 07:49:56;;;;;;;11.20;8.18;;;19.30;84.70;;;;;;5056851;28;20115;-70
2022/05/09 07:52:22;;;;;;;10.57;8.07;;;19.60;83.70;;;;;;5054576;28;20158;-69
2022/05/09 07:54:48;;;;;;;11.05;8.77;;;20.10;83.10;;;;;;5048740;28;20025;-70
2022/05/09 07:57:14;;;;;;;10.73;8.20;;;20.30;81.30;;;;;;5056631;28;20021;-70
2022/05/09 07:59:43;;;;;;;11.48;8.65;;;19.70;82.60;;;;;;5057403;28;20110;-69
2022/05/09 08:02:11;;;;;;;11.25;8.38;;;19.30;84.10;;;;;;5053624;28;20033;-70
2022/05/09 08:04:37;;;;;;;10.43;8.23;;;20.00;82.90;;;;;;5037959;28;20028;-69
2022/05/09 08:07:03;;;;;;;10.95;7.93;;;20.10;81.30;;;;;;5052874;28;20025;-69
2022/05/09 08:09:29;;;;;;;10.07;7.90;;;19.50;83.10;;;;;;5057744;28;20025;-70
2022/05/09 08:11:57;;;;;;;9.38;7.10;;;19.50;82.80;;;;;;5055649;28;20033;-70
2022/05/09 08:14:24;;;;;;;10.30;7.00;;;20.10;82.70;;;;;;5056564;28;20025;-69
2022/05/09 08:16:50;;;;;;;10.38;7.03;;;21.10;78.80;;;;;;5055279;28;20037;-69
2022/05/09 08:19:15;;;;;;;10.73;6.85;;;22.10;76.10;;;;;;5055531;28;20036;-70
2022/05/09 08:21:41;;;;;;;9.82;7.57;;;22.90;73.50;;;;;;5056974;28;20025;-70
2022/05/09 08:24:10;;;;;;;11.68;7.07;;;23.50;72.90;;;;;;5055889;28;20115;-69
2022/05/09 08:26:36;;;;;;;8.95;6.97;;;23.90;71.30;;;;;;5056119;28;20106;-69
2022/05/09 08:29:02;;;;;;;10.15;6.78;;;24.20;70.40;;;;;;5052304;28;20410;-69
2022/05/09 08:31:28;;;;;;;9.68;5.65;;;23.60;72.00;;;;;;5055476;28;20501;-69
2022/05/09 08:33:57;;;;;;;11.98;7.68;;;24.00;70.60;;;;;;5055955;28;20295;-69
2022/05/09 08:39:08;;;;;;;;;;;23.20;71.40;;;;;;5057188;28;20036;-70
2022/05/09 08:42:04;;;;;;;11.43;8.00;;;21.40;75.20;;;;;;5056823;28;19959;-70
2022/05/09 08:44:56;;;;;;;8.88;7.15;;;21.30;77.60;;;;;;5037672;28;20021;-70
2022/05/09 08:47:29;;;;;;;12.65;8.43;;;22.10;76.50;;;;;;5053637;28;20017;-69
2022/05/09 08:50:24;;;;;;;9.82;6.88;;;23.00;73.70;;;;;;5039916;28;20056;-70
2022/05/09 08:52:57;;;;;;;11.65;7.40;;;23.80;71.80;;;;;;5012448;28;20331;-70
2022/05/09 08:55:27;;;;;;;8.52;6.57;;;24.20;70.50;;;;;;5051351;28;20033;-69
2022/05/09 08:58:14;;;;;;;10.73;7.18;;;23.90;69.60;;;;;;5053524;28;20078;-70
2022/05/09 09:00:40;;;;;;;10.20;6.93;;;23.90;70.10;;;;;;5054276;28;20114;-69
2022/05/09 09:03:30;;;;;;;12.25;8.00;;;22.80;72.10;;;;;;5055164;28;20017;-70
2022/05/09 09:06:09;;;;;;;9.40;6.40;;;22.20;73.30;;;;;;5054448;28;20029;-69
2022/05/09 09:09:05;;;;;;;11.73;7.63;;;21.90;74.10;;;;;;5054194;28;20145;-69
2022/05/09 09:11:49;;;;;;;10.30;7.90;;;21.60;77.00;;;;;;5054902;28;20029;-69
2022/05/09 09:14:22;;;;;;;;;;;21.20;77.10;;;;;;5036919;28;20389;-69
2022/05/09 09:17:08;;;;;;;10.52;7.55;;;21.10;78.00;;;;;;5049275;28;19908;-70
2022/05/09 09:20:03;;;;;;;9.25;6.70;;;22.10;75.90;;;;;;5055114;28;20040;-70
2022/05/09 09:22:47;;;;;;;10.48;6.75;;;22.70;75.60;;;;;;5054010;28;20021;-70
2022/05/09 09:25:18;;;;;;;9.05;6.55;;;22.10;75.20;;;;;;5053853;28;20318;-70
2022/05/09 09:27:53;;;;;;;9.55;6.82;;;21.70;75.90;;;;;;5054735;28;20036;-69
2022/05/09 09:30:27;;;;;;;7.60;5.22;;;21.20;77.00;;;;;;5052519;28;20291;-69
2022/05/09 09:32:57;;;;;;;6.95;5.10;;;21.60;74.60;;;;;;5052934;28;20028;-70
2022/05/09 09:36:06;;;;;;;6.60;4.38;;;22.60;73.80;;;;;;5051725;28;20318;-70
2022/05/09 09:38:53;;;;;;;6.10;4.35;;;23.60;70.10;;;;;;5052625;28;20067;-69
2022/05/09 09:41:30;;;;;;;8.75;4.65;;;23.50;68.50;;;;;;5052912;28;20029;-69
2022/05/09 09:44:21;;;;;;;6.18;4.70;;;23.20;69.40;;;;;;5052453;28;20021;-70
2022/05/09 09:47:19;;;;;;;9.45;5.15;;;22.40;72.50;;;;;;5054303;28;20020;-69
2022/05/09 09:49:48;;;;;;;11.07;6.15;;;22.10;73.50;;;;;;5052360;28;20108;-69
2022/05/09 09:52:28;;;;;;;6.68;4.85;;;22.20;73.10;;;;;;5052726;28;20054;-70
2022/05/09 09:55:08;;;;;;;9.85;6.40;;;22.20;73.00;;;;;;5052010;28;20021;-69
2022/05/09 09:57:37;;;;;;;8.88;6.53;;;22.00;75.40;;;;;;5053837;28;20502;-70
2022/05/09 10:00:19;;;;;;;8.50;5.70;;;21.70;75.70;;;;;;5051680;28;20052;-69
2022/05/09 10:02:47;;;;;;;10.13;6.93;;;21.60;77.70;;;;;;5035752;28;20102;-69
2022/05/09 10:05:15;;;;;;;8.10;5.50;;;21.70;76.70;;;;;;5052823;28;20013;-69
2022/05/09 10:07:45;;;;;;;8.15;5.72;;;21.80;76.30;;;;;;5055337;28;20031;-70
2022/05/09 10:10:10;;;;;;;8.40;5.20;;;21.90;75.10;;;;;;5054025;28;20044;-70
2022/05/09 10:12:44;;;;;;;7.22;5.32;;;21.90;73.10;;;;;;5055819;28;20394;-70
2022/05/09 10:15:21;;;;;;;9.05;5.20;;;22.10;74.90;;;;;;5053040;28;20333;-69
2022/05/09 10:17:50;;;;;;;9.80;6.47;;;23.20;69.70;;;;;;5054229;28;20025;-69
2022/05/09 10:20:29;;;;;;;6.90;4.72;;;22.60;71.80;;;;;;5054679;28;20029;-70
2022/05/09 10:26:24;;;;;;;7.63;4.28;;;22.00;71.80;;;;;;5054183;28;20414;-70
2022/05/09 10:29:05;;;;;;;10.20;4.47;;;22.80;71.50;;;;;;5054199;28;20032;-69
2022/05/09 10:31:42;;;;;;;6.82;4.60;;;24.00;69.00;;;;;;5055653;28;20414;-69
2022/05/09 10:34:18;;;;;;;6.55;4.72;;;24.40;66.30;;;;;;5052513;28;20065;-70
2022/05/09 10:36:54;;;;;;;7.53;4.43;;;23.60;65.70;;;;;;5055206;28;20108;-70
2022/05/09 10:39:25;;;;;;;7.50;5.05;;;22.90;68.70;;;;;;5053432;28;20064;-70
2022/05/09 10:41:55;;;;;;;8.90;4.90;;;22.30;68.90;;;;;;5055028;28;20328;-69
2022/05/09 10:44:29;;;;;;;7.60;4.55;;;21.70;71.30;;;;;;5052942;28;20028;-69
2022/05/09 10:47:06;;;;;;;;;;;22.00;70.10;;;;;;5059822;28;20032;-70
2022/05/09 10:49:47;;;;;;;6.75;4.63;;;22.60;70.20;;;;;;5058508;28;19988;-70
2022/05/09 10:53:02;;;;;;;6.70;4.43;;;22.50;68.70;;;;;;5058487;28;20017;-75
2022/05/09 10:55:52;;;;;;;12.18;4.95;;;22.30;69.60;;;;;;5027042;28;20426;-73
2022/05/09 10:58:26;;;;;;;7.50;5.20;;;21.70;73.00;;;;;;5055200;28;20029;-70
2022/05/09 11:00:57;;;;;;;7.35;5.22;;;20.20;74.90;;;;;;5046546;28;20041;-70
2022/05/09 11:03:39;;;;;;;10.52;5.35;;;19.30;77.10;;;;;;5053651;28;20060;-70
2022/05/09 11:06:17;;;;;;;8.02;5.00;;;19.20;79.10;;;;;;5052109;28;20021;-69
2022/05/09 11:08:57;;;;;;;7.28;4.72;;;20.20;75.40;;;;;;5055822;28;20021;-70
2022/05/09 11:11:29;;;;;;;8.68;5.13;;;21.30;74.60;;;;;;5052078;28;20414;-69
2022/05/09 11:14:27;;;;;;;6.70;4.47;;;22.70;71.90;;;;;;5056446;28;20045;-69
2022/05/09 11:16:59;;;;;;;5.85;4.18;;;23.50;68.00;;;;;;5057619;28;20040;-69
2022/05/09 11:19:35;;;;;;;6.18;4.22;;;23.70;66.40;;;;;;5056228;28;20116;-69
2022/05/09 11:22:04;;;;;;;5.90;3.83;;;23.40;67.50;;;;;;5056496;28;20021;-69
2022/05/09 11:24:48;;;;;;;5.25;3.65;;;23.40;68.70;;;;;;5038333;28;20048;-68
2022/05/09 11:27:28;;;;;;;6.82;4.40;;;24.00;66.90;;;;;;5053068;28;20029;-68
2022/05/09 11:30:30;;;;;;;6.15;4.53;;;23.80;66.10;;;;;;5056074;28;20066;-69
2022/05/09 11:33:23;;;;;;;6.25;4.55;;;22.90;66.80;;;;;;5053230;28;20025;-71
2022/05/09 11:35:54;;;;;;;7.07;4.50;;;22.30;69.70;;;;;;5054677;28;20060;-70
2022/05/09 11:38:24;;;;;;;5.40;4.07;;;23.10;68.00;;;;;;5025859;28;20427;-69
2022/05/09 11:41:01;;;;;;;7.05;4.55;;;23.40;66.50;;;;;;5046881;28;20082;-70
2022/05/09 11:43:57;;;;;;;6.45;4.00;;;23.70;66.70;;;;;;5051521;28;20021;-70
2022/05/09 11:46:38;;;;;;;9.00;4.70;;;23.40;67.10;;;;;;5042975;28;20025;-70
2022/05/09 11:49:40;;;;;;;6.85;5.00;;;23.10;67.90;;;;;;5049407;28;20529;-70
2022/05/09 11:52:20;;;;;;;6.45;4.55;;;22.80;69.50;;;;;;5056062;28;20123;-70
2022/05/09 11:54:48;;;;;;;7.57;4.00;;;22.70;68.60;;;;;;5055786;28;20037;-69
2022/05/09 11:57:31;;;;;;;7.93;4.20;;;22.70;68.50;;;;;;5052967;28;20032;-69
2022/05/09 12:00:05;;;;;;;7.55;4.25;;;22.50;68.20;;;;;;5053545;28;20048;-69
2022/05/09 12:02:51;;;;;;;8.35;4.60;;;22.20;68.60;;;;;;5038004;28;20112;-70
2022/05/09 12:05:31;;;;;;;6.85;4.50;;;21.90;69.70;;;;;;5015964;28;20033;-69
2022/05/09 12:08:04;;;;;;;10.63;4.60;;;21.70;69.70;;;;;;5057063;28;20091;-69
2022/05/09 12:10:36;;;;;;;6.50;4.10;;;21.80;70.50;;;;;;5039335;28;20044;-70
2022/05/09 12:13:07;;;;;;;6.05;3.90;;;22.20;68.50;;;;;;5013828;28;20426;-69
2022/05/09 12:15:33;;;;;;;6.10;3.55;;;22.80;68.40;;;;;;5054201;28;20021;-69
2022/05/09 12:17:58;;;;;;;10.18;4.32;;;23.10;67.20;;;;;;5055010;28;20132;-69
2022/05/09 12:20:27;;;;;;;6.60;4.28;;;23.10;67.60;;;;;;5038927;28;20119;-69
2022/05/09 12:22:57;;;;;;;7.72;5.18;;;22.60;69.20;;;;;;5049488;28;20033;-67
2022/05/09 12:25:36;;;;;;;5.85;4.38;;;22.00;68.10;;;;;;5053159;28;20048;-68
2022/05/09 12:28:05;;;;;;;10.88;4.55;;;21.60;69.50;;;;;;5051728;28;20021;-68
2022/05/09 12:30:47;;;;;;;6.43;4.38;;;21.30;71.10;;;;;;5050142;28;20025;-69
2022/05/09 12:33:48;;;;;;;7.03;4.50;;;21.10;71.50;;;;;;5042887;28;20029;-69
2022/05/09 12:36:17;;;;;;;8.40;4.35;;;21.10;71.70;;;;;;5051346;28;20425;-68
2022/05/09 12:38:47;;;;;;;6.93;3.90;;;21.90;71.50;;;;;;5042868;28;20037;-69
2022/05/09 12:41:20;;;;;;;7.32;3.60;;;23.40;70.10;;;;;;5051966;28;20048;-69
2022/05/09 12:43:57;;;;;;;6.65;3.97;;;24.40;65.70;;;;;;5052585;28;20025;-70
2022/05/09 12:46:30;;;;;;;7.75;4.10;;;25.00;63.40;;;;;;5052365;28;20025;-69
2022/05/09 12:48:58;;;;;;;5.78;3.78;;;24.00;65.10;;;;;;5054692;28;20021;-69
2022/05/09 12:51:26;;;;;;;7.07;3.70;;;23.00;66.40;;;;;;5056829;28;20074;-69
2022/05/09 12:53:54;;;;;;;6.38;4.18;;;22.50;69.90;;;;;;5055737;28;20414;-69
2022/05/09 12:56:22;;;;;;;6.68;3.70;;;22.60;69.30;;;;;;5055898;28;20422;-69
2022/05/09 12:59:11;;;;;;;5.53;3.95;;;23.60;70.40;;;;;;5046923;28;20032;-68
2022/05/09 13:01:42;;;;;;;6.60;3.63;;;24.80;65.10;;;;;;5045051;28;20124;-69
2022/05/09 13:04:25;;;;;;;4.75;3.42;;;25.80;64.10;;;;;;5049775;28;20040;-69
2022/05/09 13:06:54;;;;;;;8.20;3.90;;;26.20;63.10;;;;;;5056814;28;20314;-69
2022/05/09 13:09:23;;;;;;;6.32;3.60;;;26.70;61.70;;;;;;5055750;28;20029;-69
2022/05/09 13:11:57;;;;;;;6.60;3.63;;;27.00;62.40;;;;;;5056470;28;20024;-69
2022/05/09 13:14:30;;;;;;;5.20;3.17;;;26.90;60.30;;;;;;5046396;28;20024;-69